AirNav   Everest Fuels
 
 1101 users online  

9AK5 Sky Harbor Airport
Anchorage, Alaska, USA

GOING TO ANCHORAGE?


FAA INFORMATION EFFECTIVE 18 JULY 2019

Location

FAA Identifier: 9AK5
Lat/Long: 61-06-59.3300N / 149-49-07.5700W
61-06.988833N / 149-49.126167W
61.1164806 / -149.8187694
(estimated)
Elevation: 340 ft. / 104 m (estimated)
Variation: 25E (1985)
From city: 7 miles SE of ANCHORAGE, AK
Time zone: UTC -8 (UTC -9 during Standard Time)
Zip code: 99516

Airport Operations

Airport use: Private use. Permission required prior to landing
Activation date: 06/1962
Control tower: no
ARTCC: ANCHORAGE CENTER
FSS: KENAI FLIGHT SERVICE STATION [907-283-8469]
Attendance: UNATNDD
Wind indicator: yes
Segmented circle: no

Airport Communications

CTAF: 122.9
WX ASOS at MRI (6 nm N): 124.25 (907-271-5277)
WX ASOS at LHD (6 nm NW): PHONE 907-245-1618
WX ASOS at ANC (6 nm NW): PHONE 907-271-5278
WX AWOS-3 at FRN (10 nm NE): 134.25 or 118.525 (907-384-0132)

Nearby radio navigation aids

VOR radial/distance  VOR name  Freq  Var
TEDr109/5.1ANCHORAGE VOR/DME113.1518E
BGQr152/27.5BIG LAKE VORTAC112.5019E

 
NDB name  Hdg/Dist  Freq  Var  ID
CAMPBELL LAKE100/7.433816ECMQ -.-. -- --.-

Airport Services

Airframe service: NONE
Powerplant service: NONE
Bottled oxygen: NONE
Bulk oxygen: NONE

Runway Information

Runway 16/34

Dimensions: 1800 x 70 ft. / 549 x 21 m
Surface: gravel
Operational restrictions: LAND RWY 34 & TKOF RWY 16.
RUNWAY 16  RUNWAY 34
Traffic pattern: leftleft
Markings: nonenone
Runway end identifier lights: nono
Obstructions: hill/trees, 1200 ft. from runway, 7:1 slope to clear
HILL 1200' AND 50' HIGH.
road, 1000 ft. from runway, 1:1 slope to clear

Airport Ownership and Management from official FAA records

Ownership: Privately-owned
Owner: SKY HBR PRPTY OWNER ASSOC
11641 BARR RD.
ANCHORAGE, AK 99516
APPROXIMATELY 16 OWNERS.
Manager: GORDON A. LEONARD
11641 BARR RD
ANCHORAGE, AK 99516
Phone 907-345-4896

Airport Operational Statistics

Aircraft operations: avg 125/week *
77% local general aviation
23% transient general aviation
* for 12-month period ending 29 May 1979

Instrument Procedures

There are no published instrument procedures at 9AK5.

Some nearby airports with instrument procedures:

PAMR - Merrill Field Airport (6 nm N)
PANC - Ted Stevens Anchorage International Airport (6 nm NW)
PAED - Elmendorf Air Force Base (8 nm N)
PAFR - Bryant Army Airfield Heliport (10 nm NE)
PAGQ - Big Lake Airport (25 nm N)
 
Loc | Ops | Rwys | IFR | FBO | Links
Com | Nav | Svcs | Stats | Notes

Crowley
 
Area around 9AK5 (Sky Harbor Airport)
 
Road maps at: MapQuest Bing Google
 
Aerial photo
No photo
 
Sectional chart

 
Airport distance calculator
Flying to Sky Harbor Airport? Find the distance to fly.

From to 9AK5

Sunrise and sunset
Times for 20-Jul-2019
 Local
(UTC-8)
 Zulu
(UTC)
Morning civil twilight03:4311:43
Sunrise05:0513:05
Sunset23:0707:07
Evening civil twilight00:2808:28

Current date and time
Zulu (UTC)  20-Jul-2019 21:43:28
Local (UTC-8)  20-Jul-2019 13:43:28
 
METAR
PALH 
6nm NW 
202115Z 30007KT 10SM SCT024 OVC048 18/12 A3011 RMK AO2 T01830122
PAMR 
6nm N 
202053Z 31006KT 10SM OVC037 19/12 A3010 RMK AO2 SLP194 T01890117 51003
PANC 
6nm NW 
202053Z 31007KT 10SM FEW035 BKN046 OVC080 18/13 A3011 RMK AO2 SLP195 T01830133 51003
PAED 
8nm N 
202056Z AUTO 25006KT 10SM OVC036 18/13 A3010 RMK AO2 SLP188 T01800131 51003 $
PAFR 
10nm NE 
202108Z AUTO 34003KT 10SM OVC021 17/13 A3008 RMK AO2 SLP191
TAF
PANC 
6nm NW 
201720Z 2018/2124 29005KT P6SM FEW035 BKN050 FM210000 27006KT P6SM SCT050 BKN080
PAED 
8nm N 
192352Z 1923/2101 34006KT 9999 FEW050 SCT100 BKN200 QNH2990INS BECMG 2000/2001 23009KT 9999 BKN040 QNH2994INS TEMPO 2000/2005 VCTS BKN030CB BECMG 2007/2008 36006KT 9999 SCT025 BKN030 QNH2997INS TEMPO 2008/2015 9000 -SHRA TX25/1923Z TN14/2012Z
NOTAMs
Click for the latest NOTAMs
NOTAMs are issued by the DoD/FAA and will open in a separate window not controlled by AirNav.

 

 
 

Would you like to see your business listed on this page?

 If your business provides an interesting product or service to pilots, flight crews, aircraft, or users of the Sky Harbor Airport, you should consider listing it here.  To start the listing process, click on the button below
 
Add a business
 

Other Pages about Sky Harbor Airport

Update a link
 
Copyright © AirNav, LLC. All rights reserved. Privacy Policy  Contact